Terminal Aerodrome Forecast
Issued by NWS Jacksonville, FL

Home | Current Version | Previous Version | Text Only | Print | Product List | Glossary On
Versions: 1 2 3 4 5 6 7 8 9 10 11 12 13 14
386
FTUS42 KJAX 092032 AAA
TAFJAX
TAF AMD
KJAX 092032Z 0921/1018 03010KT P6SM FEW250
     FM100000 01004KT P6SM FEW250
     FM101400 04009KT P6SM SKC=

USA.gov is the U.S. government's official web portal to all federal, state and local government web resources and services.